Time;durP1;ratioP1;P1;durP2;ratioP2;P2;SDS_P1;SDS_P2;PMS_P1;PMS_P2;Temp;Humidity;BMP_temperature;BMP_pressure;BME280_temperature;BME280_humidity;BME280_pressure;Samples;Min_cycle;Max_cycle;Signal;HPM_P1;HPM_P2
2021/01/24 05:01:27;;;;;;;2.75;2.63;;;1.50;99.90;;;;;;5516793;23;88637;-82
2021/01/24 05:03:53;;;;;;;2.40;2.30;;;;;;;;;;4947231;28;88807;-80
2021/01/24 05:06:19;;;;;;;0.98;0.98;;;1.70;99.90;;;;;;4948839;28;87907;-80
2021/01/24 05:08:45;;;;;;;1.10;1.10;;;1.80;99.90;;;;;;4955155;28;86664;-79
2021/01/24 05:11:12;;;;;;;3.00;2.90;;;1.80;99.90;;;;;;4952637;28;86482;-80
2021/01/24 05:13:38;;;;;;;8.18;1.40;;;1.90;99.90;;;;;;4951754;28;86870;-80
2021/01/24 05:16:05;;;;;;;0.80;0.80;;;2.10;99.90;;;;;;4953054;28;87056;-80
2021/01/24 05:18:31;;;;;;;0.77;0.77;;;2.20;99.90;;;;;;4953967;28;86584;-79
2021/01/24 05:20:58;;;;;;;2.85;2.75;;;;;;;;;;4958851;28;86249;-80
2021/01/24 05:23:25;;;;;;;1.00;1.00;;;2.50;99.90;;;;;;4957042;28;86616;-79
2021/01/24 05:25:55;;;;;;;1.20;1.10;;;2.60;99.90;;;;;;4957200;28;86689;-79
2021/01/24 05:28:24;;;;;;;1.30;1.20;;;2.70;99.90;;;;;;4949954;28;88030;-80
2021/01/24 05:30:50;;;;;;;2.63;2.53;;;2.50;99.90;;;;;;4954508;28;86940;-80
2021/01/24 05:33:18;;;;;;;0.98;0.82;;;2.80;99.90;;;;;;4950294;28;88912;-80
2021/01/24 05:35:52;;;;;;;1.02;1.02;;;2.90;99.90;;;;;;4946401;28;86869;-79
2021/01/24 05:38:26;;;;;;;0.93;0.93;;;2.90;99.90;;;;;;4951708;28;86983;-80
2021/01/24 05:40:52;;;;;;;2.95;2.70;;;;;;;;;;4946815;28;86805;-79
2021/01/24 05:43:18;;;;;;;2.40;2.30;;;3.10;99.90;;;;;;4954215;28;87194;-80
2021/01/24 05:45:44;;;;;;;2.60;2.50;;;2.70;99.90;;;;;;4951400;28;87438;-80
2021/01/24 05:48:14;;;;;;;2.83;2.72;;;3.00;99.90;;;;;;4947666;28;86884;-80
2021/01/24 05:50:45;;;;;;;0.90;0.90;;;3.00;99.90;;;;;;4947312;28;86829;-80
2021/01/24 05:53:13;;;;;;;2.70;2.60;;;3.00;99.90;;;;;;4951694;28;88088;-80
2021/01/24 05:55:40;;;;;;;2.70;2.60;;;2.90;99.90;;;;;;4950698;28;88392;-80
2021/01/24 05:58:20;;;;;;;2.60;2.40;;;3.10;99.90;;;;;;4955700;28;86981;-80
2021/01/24 06:00:48;;;;;;;2.90;2.80;;;3.00;99.90;;;;;;4949665;28;86634;-80
2021/01/24 06:03:15;;;;;;;1.10;1.10;;;3.00;99.90;;;;;;4945521;28;87630;-80
2021/01/24 06:05:42;;;;;;;2.60;2.40;;;3.00;99.90;;;;;;4941815;28;88130;-80
2021/01/24 06:08:09;;;;;;;2.80;2.67;;;3.00;99.90;;;;;;4943100;28;86538;-80
2021/01/24 06:10:36;;;;;;;2.42;2.33;;;2.70;99.90;;;;;;4945573;28;85876;-80
2021/01/24 06:13:03;;;;;;;2.50;2.40;;;3.30;99.90;;;;;;4943130;28;87609;-80
2021/01/24 06:15:30;;;;;;;2.80;2.70;;;3.00;99.90;;;;;;4945689;28;87839;-80
2021/01/24 06:18:00;;;;;;;0.90;0.90;;;3.00;99.80;;;;;;4944385;28;88068;-80
2021/01/24 06:20:48;;;;;;;1.35;1.27;;;3.10;99.80;;;;;;4944013;28;87159;-80
2021/01/24 06:23:21;;;;;;;2.78;2.67;;;3.10;99.00;;;;;;4946478;28;88108;-81
2021/01/24 06:25:50;;;;;;;2.30;2.20;;;3.40;97.90;;;;;;4938364;28;90393;-80
2021/01/24 06:28:26;;;;;;;2.75;2.65;;;3.60;97.60;;;;;;4944811;28;86886;-81
2021/01/24 06:30:53;;;;;;;2.25;2.15;;;2.90;98.30;;;;;;4947038;28;86932;-80
2021/01/24 06:33:21;;;;;;;2.75;2.53;;;3.10;98.30;;;;;;4945455;28;86884;-81
2021/01/24 06:35:58;;;;;;;2.72;2.53;;;3.20;98.30;;;;;;4941764;28;88803;-80
2021/01/24 06:38:31;;;;;;;2.38;2.28;;;3.10;98.00;;;;;;4946572;28;87041;-81
2021/01/24 06:40:58;;;;;;;2.80;2.65;;;3.10;97.80;;;;;;4946498;28;86950;-81
2021/01/24 06:43:48;;;;;;;2.30;2.20;;;3.10;97.30;;;;;;4945767;28;88031;-82
2021/01/24 06:46:32;;;;;;;2.20;2.10;;;3.60;97.40;;;;;;4943253;28;87593;-81
2021/01/24 06:48:58;;;;;;;2.03;1.92;;;3.20;97.00;;;;;;4946623;28;86914;-81
2021/01/24 06:51:38;;;;;;;1.10;1.00;;;3.10;97.20;;;;;;4945282;28;87096;-81
2021/01/24 06:54:26;;;;;;;1.25;1.17;;;3.20;96.80;;;;;;4946144;28;87311;-81
2021/01/24 06:56:51;;;;;;;2.60;2.50;;;2.80;96.80;;;;;;4940510;28;86963;-82
2021/01/24 06:59:29;;;;;;;1.30;1.10;;;3.10;96.50;;;;;;4945285;28;86545;-81
2021/01/24 07:02:22;;;;;;;3.17;3.08;;;3.30;95.70;;;;;;4945392;28;86206;-82
2021/01/24 07:05:17;;;;;;;2.90;2.70;;;3.30;96.30;;;;;;4941850;28;87230;-80
2021/01/24 07:07:50;;;;;;;2.42;2.33;;;3.20;95.80;;;;;;4939795;28;88326;-82
2021/01/24 07:10:45;;;;;;;2.85;2.65;;;3.30;94.20;;;;;;4943238;28;88467;-81
2021/01/24 07:13:25;;;;;;;3.15;3.05;;;2.90;94.20;;;;;;4935260;28;87122;-82
2021/01/24 07:15:56;;;;;;;2.40;2.30;;;3.20;94.90;;;;;;4942469;28;87324;-81
2021/01/24 07:18:23;;;;;;;4.30;2.67;;;3.10;93.10;;;;;;4944801;28;88538;-80
2021/01/24 07:20:51;;;;;;;1.40;1.30;;;2.80;93.40;;;;;;4949762;28;86899;-81
2021/01/24 07:23:18;;;;;;;1.40;1.30;;;2.70;93.20;;;;;;4953856;28;86825;-81
2021/01/24 07:25:45;;;;;;;1.42;1.33;;;2.80;92.20;;;;;;4960350;28;87329;-83
2021/01/24 07:28:15;;;;;;;3.20;3.00;;;2.90;92.30;;;;;;4956483;28;86198;-80
2021/01/24 07:30:41;;;;;;;2.80;2.70;;;2.90;92.50;;;;;;4948788;28;86285;-83
2021/01/24 07:33:08;;;;;;;2.70;2.53;;;2.90;92.40;;;;;;4949010;28;87104;-80
2021/01/24 07:35:37;;;;;;;2.50;2.30;;;3.00;91.00;;;;;;4956032;28;87889;-82
2021/01/24 07:38:04;;;;;;;2.35;2.25;;;2.80;91.60;;;;;;4963133;28;87550;-80
2021/01/24 07:40:31;;;;;;;3.00;2.80;;;3.60;91.90;;;;;;4960920;28;86332;-81
2021/01/24 07:42:57;;;;;;;1.60;1.50;;;3.20;91.30;;;;;;4953546;28;86980;-82
2021/01/24 07:45:26;;;;;;;2.42;2.00;;;3.20;90.70;;;;;;4949478;28;87410;-82
2021/01/24 07:47:53;;;;;;;2.70;2.60;;;3.20;90.80;;;;;;4947910;28;87253;-81
2021/01/24 07:50:19;;;;;;;2.72;2.63;;;3.30;91.00;;;;;;4945790;28;86787;-81
2021/01/24 07:52:45;;;;;;;2.47;2.38;;;3.20;90.00;;;;;;4945423;28;86426;-81
2021/01/24 07:55:11;;;;;;;2.70;2.50;;;3.20;89.10;;;;;;4942127;28;87414;-81
2021/01/24 07:57:39;;;;;;;2.80;2.67;;;3.20;90.00;;;;;;4941701;28;86774;-81
2021/01/24 08:00:06;;;;;;;2.55;2.45;;;2.80;87.00;;;;;;4944562;28;87233;-80
2021/01/24 08:02:31;;;;;;;1.35;1.25;;;3.00;87.50;;;;;;4944268;28;87129;-81
2021/01/24 08:04:59;;;;;;;2.63;2.47;;;2.90;90.20;;;;;;4942345;28;87100;-83
2021/01/24 08:07:29;;;;;;;2.70;2.60;;;2.90;85.70;;;;;;4943249;28;88363;-82
2021/01/24 08:09:55;;;;;;;3.00;2.80;;;3.00;83.80;;;;;;4945617;28;86269;-83
2021/01/24 08:12:22;;;;;;;2.50;2.30;;;2.90;82.70;;;;;;4939501;28;86919;-81
2021/01/24 08:14:48;;;;;;;2.72;2.63;;;2.90;83.30;;;;;;4943971;28;86836;-81
2021/01/24 08:17:16;;;;;;;3.00;2.80;;;2.70;81.80;;;;;;4944065;28;86988;-81
2021/01/24 08:19:43;;;;;;;2.47;2.38;;;2.90;82.10;;;;;;4942772;28;87178;-82
2021/01/24 08:22:09;;;;;;;3.60;2.55;;;3.00;77.10;;;;;;4943373;28;87081;-83
2021/01/24 08:24:35;;;;;;;2.80;2.70;;;3.00;78.70;;;;;;4945985;28;87950;-83
2021/01/24 08:27:01;;;;;;;2.80;2.70;;;3.00;78.80;;;;;;4936427;28;87263;-82
2021/01/24 08:29:34;;;;;;;3.92;2.53;;;3.20;78.80;;;;;;4945463;28;86587;-81
2021/01/24 08:32:04;;;;;;;4.70;2.70;;;3.20;77.50;;;;;;4939597;28;87097;-82
2021/01/24 08:34:32;;;;;;;3.33;3.00;;;3.30;76.10;;;;;;4945154;28;89207;-82
2021/01/24 08:36:59;;;;;;;3.25;2.50;;;3.40;74.10;;;;;;4945525;28;87038;-81
2021/01/24 08:39:26;;;;;;;3.92;2.60;;;3.70;74.90;;;;;;4944815;28;87119;-81
2021/01/24 08:41:53;;;;;;;3.22;2.95;;;3.70;72.60;;;;;;4945069;28;86027;-81
2021/01/24 08:44:19;;;;;;;3.30;3.00;;;3.80;73.10;;;;;;4943540;28;87342;-82
2021/01/24 08:46:49;;;;;;;2.92;2.72;;;4.00;70.60;;;;;;4944398;28;86961;-82
2021/01/24 08:49:22;;;;;;;3.03;2.92;;;4.10;71.00;;;;;;4944824;28;88105;-82
2021/01/24 08:51:54;;;;;;;2.90;2.70;;;4.00;68.00;;;;;;4946100;28;87078;-81
2021/01/24 08:54:28;;;;;;;1.58;1.48;;;3.90;66.40;;;;;;4943808;28;87186;-81
2021/01/24 08:57:18;;;;;;;3.03;2.90;;;3.40;64.20;;;;;;4934371;28;90421;-81
2021/01/24 08:59:49;;;;;;;4.43;2.90;;;3.80;65.90;;;;;;4945208;28;87051;-82
2021/01/24 09:02:28;;;;;;;2.83;2.63;;;3.70;65.10;;;;;;4925656;28;86816;-82
2021/01/24 09:04:54;;;;;;;3.22;3.03;;;;;;;;;;4933166;28;87709;-81
2021/01/24 09:07:20;;;;;;;2.88;2.72;;;4.30;65.20;;;;;;4920756;28;86396;-81
2021/01/24 09:09:48;;;;;;;3.67;2.55;;;4.10;65.20;;;;;;4923803;28;86934;-81
2021/01/24 09:12:15;;;;;;;3.22;2.85;;;4.20;64.80;;;;;;4924235;28;87020;-81
2021/01/24 09:14:42;;;;;;;3.40;3.30;;;4.30;60.80;;;;;;4933970;28;87830;-82
2021/01/24 09:17:12;;;;;;;3.20;2.92;;;4.30;61.00;;;;;;4933473;28;87204;-81
2021/01/24 09:19:39;;;;;;;3.55;2.92;;;4.40;63.90;;;;;;4906148;28;86818;-81
2021/01/24 09:22:06;;;;;;;3.22;2.92;;;4.60;61.40;;;;;;4924697;28;87046;-80
2021/01/24 09:24:32;;;;;;;3.13;2.80;;;4.50;59.60;;;;;;4920793;28;88607;-81
2021/01/24 09:26:58;;;;;;;2.78;2.58;;;4.60;59.00;;;;;;4923599;28;86569;-81
2021/01/24 09:29:24;;;;;;;3.00;2.78;;;5.00;59.10;;;;;;4921628;28;87161;-81
2021/01/24 09:31:50;;;;;;;2.75;2.55;;;;;;;;;;4922850;28;86402;-81
2021/01/24 09:34:16;;;;;;;2.80;2.60;;;5.30;60.40;;;;;;4919784;28;87206;-82
2021/01/24 09:36:41;;;;;;;1.75;1.15;;;5.40;59.20;;;;;;4925942;28;86915;-81
2021/01/24 09:39:08;;;;;;;2.15;1.40;;;5.30;57.90;;;;;;4925620;28;87463;-83
2021/01/24 09:41:34;;;;;;;3.22;3.03;;;5.30;58.70;;;;;;4925730;28;88083;-83
2021/01/24 09:44:01;;;;;;;3.22;2.78;;;5.70;58.70;;;;;;4924907;28;88112;-85
2021/01/24 09:46:27;;;;;;;2.78;2.58;;;5.70;59.20;;;;;;4926923;28;86938;-84
2021/01/24 09:48:53;;;;;;;3.75;3.05;;;5.80;58.50;;;;;;4928025;28;86890;-85
2021/01/24 09:51:19;;;;;;;2.97;2.78;;;6.00;58.50;;;;;;4928414;28;86639;-85
2021/01/24 09:53:57;;;;;;;2.90;2.72;;;6.30;58.50;;;;;;4929855;28;86738;-83
2021/01/24 09:56:27;;;;;;;3.42;3.22;;;6.60;57.80;;;;;;4929161;28;86853;-85
2021/01/24 09:58:54;;;;;;;2.72;2.60;;;6.80;56.00;;;;;;4927161;28;86954;-86
2021/01/24 10:01:20;;;;;;;3.10;2.60;;;7.20;55.30;;;;;;4933595;28;86930;-84
2021/01/24 10:03:47;;;;;;;3.03;2.80;;;8.10;51.60;;;;;;4946467;28;87708;-86
2021/01/24 10:06:13;;;;;;;3.55;2.97;;;;;;;;;;4944888;28;88556;-86
2021/01/24 10:08:39;;;;;;;2.83;2.67;;;8.10;50.50;;;;;;4946046;28;87137;-86
2021/01/24 10:11:04;;;;;;;2.30;2.10;;;8.20;50.10;;;;;;4946602;28;86887;-85
2021/01/24 10:13:30;;;;;;;2.70;2.60;;;8.20;50.30;;;;;;4947313;28;87465;-86
2021/01/24 10:15:56;;;;;;;2.58;2.30;;;8.40;52.40;;;;;;4948093;28;87079;-84
2021/01/24 10:18:22;;;;;;;2.60;2.40;;;8.60;49.10;;;;;;4945828;28;87321;-84
2021/01/24 10:20:48;;;;;;;3.47;2.17;;;8.60;50.30;;;;;;4946616;28;86005;-81
2021/01/24 10:23:16;;;;;;;3.08;2.50;;;8.70;49.60;;;;;;4945762;28;87331;-81
2021/01/24 10:25:42;;;;;;;2.97;2.78;;;8.50;47.70;;;;;;4945030;28;87894;-80
2021/01/24 10:28:07;;;;;;;4.05;3.00;;;8.70;48.90;;;;;;4946634;28;87846;-80
2021/01/24 10:30:33;;;;;;;2.90;2.70;;;9.30;46.60;;;;;;4931581;28;89545;-80
2021/01/24 10:32:59;;;;;;;2.38;2.17;;;9.70;45.00;;;;;;4935220;28;86892;-80
2021/01/24 10:35:25;;;;;;;2.40;2.30;;;9.80;45.70;;;;;;4942545;28;87273;-80
2021/01/24 10:37:50;;;;;;;2.63;2.42;;;10.70;45.50;;;;;;4942755;28;86841;-81
2021/01/24 10:40:16;;;;;;;2.60;2.40;;;11.80;44.60;;;;;;4933702;28;87873;-79
2021/01/24 10:42:42;;;;;;;2.75;2.55;;;13.50;42.80;;;;;;4938833;28;87014;-81
2021/01/24 10:45:09;;;;;;;3.03;2.80;;;15.10;38.50;;;;;;4938788;28;88560;-81
2021/01/24 10:47:35;;;;;;;2.50;2.35;;;15.30;36.20;;;;;;4935642;28;86994;-81
2021/01/24 10:50:01;;;;;;;2.42;2.20;;;15.20;37.90;;;;;;4942591;28;87098;-80
2021/01/24 10:52:27;;;;;;;2.78;2.58;;;14.10;37.50;;;;;;4938143;28;88666;-80
2021/01/24 10:54:53;;;;;;;2.80;2.60;;;13.70;38.00;;;;;;4943518;28;87352;-80
2021/01/24 10:57:19;;;;;;;3.00;2.70;;;13.40;38.50;;;;;;4941303;28;86876;-81
2021/01/24 10:59:45;;;;;;;2.67;2.55;;;13.00;38.60;;;;;;4946328;28;87046;-82
2021/01/24 11:02:11;;;;;;;2.90;2.60;;;12.50;39.20;;;;;;4943770;28;87638;-82
2021/01/24 11:04:36;;;;;;;2.65;2.45;;;12.30;38.80;;;;;;4945404;28;87893;-81
2021/01/24 11:07:03;;;;;;;3.05;2.63;;;11.90;39.80;;;;;;4944745;28;86274;-81
2021/01/24 11:09:30;;;;;;;2.70;2.50;;;11.70;40.00;;;;;;4946375;28;86298;-81
2021/01/24 11:11:55;;;;;;;5.10;3.70;;;11.70;40.80;;;;;;4943776;28;87114;-79
2021/01/24 11:14:21;;;;;;;3.25;3.00;;;11.80;41.90;;;;;;4946281;28;86326;-80
2021/01/24 11:16:47;;;;;;;3.10;2.90;;;12.60;41.00;;;;;;4941724;28;87888;-78
2021/01/24 11:19:13;;;;;;;2.63;2.38;;;13.40;39.90;;;;;;4945314;28;86847;-80
2021/01/24 11:21:38;;;;;;;2.58;2.40;;;13.80;36.40;;;;;;4941911;28;87022;-81
2021/01/24 11:24:04;;;;;;;2.40;2.20;;;13.10;37.80;;;;;;4945808;28;88300;-81
2021/01/24 11:26:30;;;;;;;3.92;2.85;;;13.20;39.00;;;;;;4942298;28;87627;-82
2021/01/24 11:28:56;;;;;;;2.72;2.42;;;13.70;37.90;;;;;;4948059;28;86779;-81
2021/01/24 11:31:22;;;;;;;4.35;2.85;;;13.80;37.60;;;;;;4947053;28;87031;-82
2021/01/24 11:33:48;;;;;;;3.90;2.80;;;14.10;36.10;;;;;;4946635;28;86160;-82
2021/01/24 11:36:14;;;;;;;4.30;2.40;;;13.70;36.90;;;;;;4940057;28;86371;-82
2021/01/24 11:38:41;;;;;;;3.35;3.05;;;13.40;38.10;;;;;;4945781;28;87666;-82
2021/01/24 11:41:07;;;;;;;3.92;2.67;;;13.40;37.20;;;;;;4941898;28;88596;-83
2021/01/24 11:43:32;;;;;;;2.42;2.30;;;13.10;37.00;;;;;;4943434;28;87705;-81
2021/01/24 11:45:59;;;;;;;4.07;2.05;;;12.50;36.70;;;;;;4937710;28;87088;-82
2021/01/24 11:48:25;;;;;;;2.00;1.85;;;11.90;39.10;;;;;;4935222;28;86675;-82
2021/01/24 11:50:51;;;;;;;2.80;2.60;;;12.00;39.10;;;;;;4947063;28;88736;-82
2021/01/24 11:53:24;;;;;;;3.47;2.50;;;12.20;38.60;;;;;;4945475;28;87960;-83
2021/01/24 11:55:52;;;;;;;2.55;2.35;;;12.50;38.80;;;;;;4942022;28;87969;-80
2021/01/24 11:58:22;;;;;;;2.65;2.45;;;12.70;38.00;;;;;;4945837;28;86244;-81
2021/01/24 12:00:47;;;;;;;2.72;2.38;;;12.40;37.20;;;;;;4937297;28;88101;-78
2021/01/24 12:03:13;;;;;;;2.90;2.80;;;12.70;37.60;;;;;;4936982;28;86951;-80
2021/01/24 12:05:39;;;;;;;2.70;2.50;;;13.90;36.90;;;;;;4946249;28;87721;-81
2021/01/24 12:08:06;;;;;;;2.60;2.40;;;14.90;36.70;;;;;;4943597;28;87085;-80
2021/01/24 12:10:32;;;;;;;2.63;2.53;;;16.20;34.60;;;;;;4942315;28;87170;-81
2021/01/24 12:12:58;;;;;;;2.72;2.53;;;17.60;32.60;;;;;;4939427;28;88174;-81
2021/01/24 12:15:24;;;;;;;2.58;2.40;;;18.70;31.00;;;;;;4942740;28;86760;-81
2021/01/24 12:17:50;;;;;;;3.53;2.50;;;19.30;30.70;;;;;;4943061;28;87371;-81
2021/01/24 12:20:15;;;;;;;2.80;2.60;;;19.60;30.00;;;;;;4942778;28;87492;-82
2021/01/24 12:22:41;;;;;;;3.25;2.58;;;19.30;29.00;;;;;;4937928;28;87308;-81
2021/01/24 12:25:08;;;;;;;2.67;2.50;;;19.60;28.80;;;;;;4943056;28;86678;-81
2021/01/24 12:27:34;;;;;;;3.50;3.00;;;20.00;28.70;;;;;;4947195;28;86515;-81
2021/01/24 12:30:00;;;;;;;2.97;2.75;;;20.70;28.00;;;;;;4947248;28;88606;-82
2021/01/24 12:32:26;;;;;;;3.10;2.90;;;20.90;27.30;;;;;;4940019;28;87663;-80
2021/01/24 12:34:51;;;;;;;4.50;2.90;;;20.50;27.50;;;;;;4946406;28;87099;-80
2021/01/24 12:37:17;;;;;;;2.70;2.50;;;19.50;28.50;;;;;;4942893;28;86326;-82
2021/01/24 12:39:43;;;;;;;4.80;3.17;;;19.00;27.20;;;;;;4946180;28;87225;-81
2021/01/24 12:42:10;;;;;;;4.75;2.97;;;18.30;29.10;;;;;;4945121;28;87693;-84
2021/01/24 12:44:36;;;;;;;3.10;2.78;;;19.30;28.70;;;;;;4941217;28;87027;-82
2021/01/24 12:47:02;;;;;;;3.30;3.05;;;19.80;28.30;;;;;;4947380;28;85931;-81
2021/01/24 12:49:27;;;;;;;2.90;2.70;;;20.00;27.80;;;;;;4941371;28;88256;-82
2021/01/24 12:51:53;;;;;;;4.03;3.05;;;19.70;27.80;;;;;;4946741;28;87326;-83
2021/01/24 12:54:19;;;;;;;2.97;2.67;;;19.60;28.80;;;;;;4943450;28;89687;-83
2021/01/24 12:56:44;;;;;;;2.75;2.50;;;20.00;28.10;;;;;;4939883;28;86848;-83
2021/01/24 12:59:10;;;;;;;3.08;2.88;;;20.50;27.60;;;;;;4948060;28;86953;-83
2021/01/24 13:01:36;;;;;;;3.13;2.92;;;20.70;27.00;;;;;;4947751;28;87025;-82
2021/01/24 13:04:02;;;;;;;2.95;2.75;;;20.60;27.30;;;;;;4950155;28;86705;-83
2021/01/24 13:06:27;;;;;;;2.80;2.60;;;20.60;27.00;;;;;;4957774;28;86412;-83
2021/01/24 13:08:53;;;;;;;2.92;2.75;;;20.80;27.30;;;;;;4958392;28;87050;-83
2021/01/24 13:11:19;;;;;;;3.10;2.90;;;20.90;27.50;;;;;;4958865;28;86132;-84
2021/01/24 13:13:45;;;;;;;2.55;2.35;;;21.00;26.80;;;;;;4953122;28;86614;-82
2021/01/24 13:16:11;;;;;;;2.90;2.70;;;20.70;26.80;;;;;;4958171;28;86777;-83
2021/01/24 13:18:37;;;;;;;3.50;3.20;;;20.50;27.10;;;;;;4955326;28;87574;-83
2021/01/24 13:21:03;;;;;;;3.30;3.03;;;20.20;27.70;;;;;;4960247;28;87847;-83
2021/01/24 13:23:29;;;;;;;3.10;2.90;;;20.40;27.70;;;;;;4954278;28;86692;-84
2021/01/24 13:25:55;;;;;;;3.10;2.80;;;20.70;27.80;;;;;;4962339;28;86268;-83
2021/01/24 13:28:21;;;;;;;2.50;2.40;;;20.60;27.80;;;;;;4957118;28;86582;-83
2021/01/24 13:30:47;;;;;;;3.05;2.85;;;20.40;27.10;;;;;;4961312;28;87158;-83
2021/01/24 13:33:13;;;;;;;4.05;3.67;;;20.40;27.90;;;;;;4953337;28;87681;-83
2021/01/24 13:35:38;;;;;;;2.67;2.55;;;20.20;27.60;;;;;;4950115;28;86770;-84
2021/01/24 13:38:04;;;;;;;3.00;2.80;;;20.00;27.80;;;;;;4953715;28;88833;-84
2021/01/24 13:40:30;;;;;;;2.83;2.63;;;20.10;27.10;;;;;;4947307;28;86939;-84
2021/01/24 13:42:56;;;;;;;2.97;2.70;;;20.20;27.50;;;;;;4951558;28;87231;-84
2021/01/24 13:45:21;;;;;;;3.08;2.85;;;20.10;27.20;;;;;;4948590;28;86360;-84
2021/01/24 13:47:47;;;;;;;3.00;2.80;;;19.70;27.60;;;;;;4952398;28;87670;-84
2021/01/24 13:50:13;;;;;;;2.70;2.50;;;19.30;27.50;;;;;;4951134;28;86994;-84
2021/01/24 13:52:38;;;;;;;2.85;2.58;;;18.70;28.40;;;;;;4951409;28;86608;-83
2021/01/24 13:55:07;;;;;;;2.67;2.47;;;18.60;28.00;;;;;;4950237;28;87021;-83
2021/01/24 13:57:33;;;;;;;2.70;2.50;;;18.20;28.10;;;;;;4947239;28;86972;-83
2021/01/24 13:59:59;;;;;;;2.80;2.60;;;17.90;29.40;;;;;;4949250;28;87449;-84
2021/01/24 14:02:24;;;;;;;3.05;2.83;;;17.60;29.60;;;;;;4950632;28;87003;-83
2021/01/24 14:04:50;;;;;;;2.97;2.70;;;17.50;29.80;;;;;;4951482;28;87054;-84
2021/01/24 14:07:16;;;;;;;3.00;2.55;;;17.40;29.50;;;;;;4943474;28;88192;-84
2021/01/24 14:09:41;;;;;;;2.75;2.58;;;17.30;29.70;;;;;;4951547;28;87213;-83
2021/01/24 14:12:07;;;;;;;3.22;2.90;;;17.00;30.20;;;;;;4949365;28;87098;-84
2021/01/24 14:14:33;;;;;;;2.90;2.70;;;16.80;30.40;;;;;;4945670;28;86583;-82
2021/01/24 14:16:59;;;;;;;3.45;2.78;;;16.80;30.40;;;;;;4943410;28;89618;-83
2021/01/24 14:19:25;;;;;;;3.08;2.90;;;16.90;30.70;;;;;;4948682;28;86823;-84
2021/01/24 14:21:50;;;;;;;2.97;2.65;;;16.90;30.70;;;;;;4943664;28;87210;-83
2021/01/24 14:24:16;;;;;;;2.80;2.60;;;17.00;30.20;;;;;;4946496;28;86092;-83
2021/01/24 14:26:43;;;;;;;2.92;2.60;;;16.80;30.80;;;;;;4945204;28;87363;-83
2021/01/24 14:29:09;;;;;;;2.60;2.50;;;16.70;30.30;;;;;;4948512;28;87137;-83
2021/01/24 14:31:35;;;;;;;2.70;2.60;;;16.60;29.90;;;;;;4945235;28;87868;-83
2021/01/24 14:34:01;;;;;;;2.92;2.80;;;16.70;30.40;;;;;;4947526;28;86986;-83
2021/01/24 14:36:26;;;;;;;3.08;2.33;;;16.70;30.70;;;;;;4945292;28;86936;-83
2021/01/24 14:38:56;;;;;;;3.58;2.53;;;16.60;30.50;;;;;;4944093;28;86869;-83
2021/01/24 14:41:22;;;;;;;2.90;2.70;;;16.40;30.50;;;;;;4945398;28;86948;-83
2021/01/24 14:43:48;;;;;;;3.30;2.78;;;16.00;31.10;;;;;;4947905;28;86991;-83
2021/01/24 14:46:13;;;;;;;2.90;2.70;;;15.60;31.10;;;;;;4946716;28;86470;-83
2021/01/24 14:48:39;;;;;;;2.60;2.40;;;15.10;31.70;;;;;;4948878;28;87759;-83
2021/01/24 14:51:05;;;;;;;2.83;2.63;;;14.50;32.40;;;;;;4947524;28;87145;-83
2021/01/24 14:53:33;;;;;;;2.70;2.50;;;14.00;33.20;;;;;;4948416;28;87696;-83
2021/01/24 14:55:59;;;;;;;2.80;2.58;;;13.50;33.70;;;;;;4948193;28;88022;-83
2021/01/24 14:58:25;;;;;;;2.80;2.60;;;12.90;34.50;;;;;;4948828;28;87798;-83
2021/01/24 15:00:51;;;;;;;2.92;2.70;;;12.50;35.40;;;;;;4943525;28;87252;-83
2021/01/24 15:03:16;;;;;;;3.30;2.72;;;12.20;35.70;;;;;;4928857;28;86635;-83
2021/01/24 15:05:42;;;;;;;2.88;2.78;;;12.00;36.10;;;;;;4927907;28;87325;-83
2021/01/24 15:08:09;;;;;;;3.40;3.10;;;11.60;36.60;;;;;;4927624;28;86988;-82
2021/01/24 15:10:35;;;;;;;3.83;3.08;;;11.20;37.20;;;;;;4929369;28;86890;-82
2021/01/24 15:13:01;;;;;;;4.22;2.72;;;10.70;38.00;;;;;;4927557;28;86352;-82
2021/01/24 15:15:27;;;;;;;2.88;2.67;;;10.10;39.30;;;;;;4906437;28;88138;-82
2021/01/24 15:17:53;;;;;;;3.47;2.95;;;9.50;40.30;;;;;;4926343;28;87902;-80
2021/01/24 15:20:18;;;;;;;3.33;2.65;;;9.10;40.90;;;;;;4925645;28;89564;-80
2021/01/24 15:22:44;;;;;;;3.35;3.05;;;8.80;41.60;;;;;;4924957;28;87081;-80
2021/01/24 15:25:10;;;;;;;2.70;2.50;;;8.50;42.50;;;;;;4925684;28;86953;-80
2021/01/24 15:27:36;;;;;;;3.25;3.00;;;8.20;42.90;;;;;;4924654;28;89109;-81
2021/01/24 15:30:03;;;;;;;3.22;3.03;;;7.90;44.30;;;;;;4923357;28;87133;-80
2021/01/24 15:32:29;;;;;;;3.03;2.83;;;7.50;44.20;;;;;;4926927;28;87964;-80
2021/01/24 15:34:55;;;;;;;3.03;2.80;;;7.20;45.10;;;;;;4922649;28;87304;-80
2021/01/24 15:37:21;;;;;;;3.75;3.15;;;7.00;45.70;;;;;;4911995;28;87188;-80
2021/01/24 15:39:47;;;;;;;5.18;4.05;;;6.60;46.40;;;;;;4922804;28;86937;-80
2021/01/24 15:42:13;;;;;;;6.25;3.95;;;6.40;47.20;;;;;;4906604;28;86673;-80
2021/01/24 15:44:38;;;;;;;4.60;3.80;;;6.10;48.10;;;;;;4918339;28;87895;-80
2021/01/24 15:47:04;;;;;;;6.18;4.60;;;5.90;48.60;;;;;;4926225;28;87668;-80
2021/01/24 15:49:30;;;;;;;7.47;5.40;;;5.70;49.20;;;;;;4926236;28;87057;-82
2021/01/24 15:51:55;;;;;;;8.32;5.35;;;5.40;50.80;;;;;;4925641;28;87058;-80
2021/01/24 15:54:21;;;;;;;12.02;6.68;;;5.10;51.70;;;;;;4923785;28;86568;-80
2021/01/24 15:56:47;;;;;;;9.23;7.50;;;4.80;52.60;;;;;;4924623;28;87389;-79
2021/01/24 15:59:13;;;;;;;7.25;5.00;;;4.60;53.20;;;;;;4925595;28;87187;-80
2021/01/24 16:01:39;;;;;;;6.40;4.68;;;4.40;54.10;;;;;;4932965;28;86008;-81
2021/01/24 16:04:06;;;;;;;6.40;4.55;;;4.20;54.50;;;;;;4943128;28;87093;-80
2021/01/24 16:06:32;;;;;;;7.53;4.57;;;4.10;55.20;;;;;;4942032;28;87148;-80
2021/01/24 16:08:58;;;;;;;6.00;4.25;;;3.90;56.20;;;;;;4944548;28;87930;-81
2021/01/24 16:11:24;;;;;;;9.27;5.15;;;3.70;56.40;;;;;;4944937;28;86592;-81
2021/01/24 16:13:50;;;;;;;35.60;17.45;;;3.60;57.60;;;;;;4936617;28;87482;-81
2021/01/24 16:16:16;;;;;;;15.13;8.57;;;3.30;62.50;;;;;;4935678;28;87391;-80
2021/01/24 16:18:42;;;;;;;5.60;4.07;;;3.00;64.40;;;;;;4941206;28;86700;-81
2021/01/24 16:21:07;;;;;;;7.63;4.80;;;2.70;63.70;;;;;;4941063;28;86966;-80
2021/01/24 16:23:34;;;;;;;10.65;5.75;;;2.50;62.70;;;;;;4937120;28;87584;-81
2021/01/24 16:25:59;;;;;;;10.13;6.50;;;2.50;62.70;;;;;;4937583;28;88979;-80
2021/01/24 16:28:25;;;;;;;8.85;5.88;;;2.50;63.00;;;;;;4942144;28;87565;-80
2021/01/24 16:30:51;;;;;;;8.38;6.40;;;2.40;63.10;;;;;;4943177;28;87011;-80
2021/01/24 16:33:16;;;;;;;8.45;5.93;;;2.30;63.90;;;;;;4941022;28;89712;-81
2021/01/24 16:35:42;;;;;;;5.72;4.75;;;2.10;65.20;;;;;;4942913;28;87755;-80
2021/01/24 16:38:08;;;;;;;9.18;4.53;;;2.00;65.50;;;;;;4942969;28;86877;-80
2021/01/24 16:40:33;;;;;;;5.28;4.15;;;1.90;66.00;;;;;;4942697;28;86741;-80
2021/01/24 16:42:59;;;;;;;7.80;5.68;;;1.80;68.30;;;;;;4943827;28;86998;-80
2021/01/24 16:45:25;;;;;;;6.32;5.03;;;1.70;69.80;;;;;;4941816;28;87058;-80
2021/01/24 16:47:51;;;;;;;5.85;5.35;;;1.60;71.10;;;;;;4940404;28;86790;-80
2021/01/24 16:50:16;;;;;;;7.70;5.25;;;1.50;72.80;;;;;;4938056;28;86428;-80
2021/01/24 16:52:43;;;;;;;5.40;4.90;;;1.40;73.00;;;;;;4943012;28;87569;-80
2021/01/24 16:55:09;;;;;;;8.20;4.40;;;1.30;73.10;;;;;;4939168;28;86920;-80
2021/01/24 16:57:35;;;;;;;4.88;3.83;;;1.30;72.60;;;;;;4936084;28;87847;-80
2021/01/24 17:00:00;;;;;;;5.72;4.57;;;1.20;71.60;;;;;;4941415;28;86571;-80
2021/01/24 17:02:26;;;;;;;5.60;4.90;;;1.20;72.20;;;;;;4942489;28;88244;-79
2021/01/24 17:04:51;;;;;;;6.95;5.40;;;1.10;72.50;;;;;;4942862;28;87791;-80
2021/01/24 17:07:17;;;;;;;5.68;5.10;;;1.10;73.30;;;;;;4942726;28;86880;-79
2021/01/24 17:09:46;;;;;;;7.35;4.50;;;1.00;73.20;;;;;;4941528;28;86450;-79
2021/01/24 17:12:11;;;;;;;7.43;5.05;;;1.00;74.10;;;;;;4942160;28;87630;-79
2021/01/24 17:14:37;;;;;;;5.90;4.47;;;1.00;73.40;;;;;;4943289;28;87978;-79
2021/01/24 17:17:03;;;;;;;5.28;4.75;;;0.90;73.50;;;;;;4941502;28;87253;-79
2021/01/24 17:19:28;;;;;;;8.30;5.47;;;0.80;75.70;;;;;;4939649;28;87014;-79
2021/01/24 17:21:54;;;;;;;9.88;5.93;;;0.80;76.70;;;;;;4939172;28;87970;-79
2021/01/24 17:24:20;;;;;;;6.13;5.47;;;0.30;85.10;;;;;;4934802;28;87705;-78
2021/01/24 17:26:46;;;;;;;8.75;5.35;;;0.60;85.50;;;;;;4941970;28;86916;-79
2021/01/24 17:29:12;;;;;;;8.77;5.65;;;0.40;87.70;;;;;;4940269;28;86767;-80
2021/01/24 17:31:39;;;;;;;9.48;6.60;;;0.40;90.20;;;;;;4943414;28;86834;-80
2021/01/24 17:34:05;;;;;;;10.93;7.22;;;0.30;91.20;;;;;;4941715;28;87349;-80
2021/01/24 17:36:31;;;;;;;12.85;7.30;;;0.20;91.20;;;;;;4943719;28;86896;-79
2021/01/24 17:38:57;;;;;;;11.90;7.15;;;0.10;92.40;;;;;;4942446;28;86278;-80
2021/01/24 17:41:23;;;;;;;11.52;7.03;;;0.10;92.70;;;;;;4942840;28;87537;-80
2021/01/24 17:43:49;;;;;;;11.70;6.78;;;0.10;92.80;;;;;;4941615;28;87168;-79
2021/01/24 17:46:15;;;;;;;10.80;6.78;;;0.20;92.80;;;;;;4941422;28;88077;-79
2021/01/24 17:48:44;;;;;;;10.80;7.18;;;0.30;93.50;;;;;;4941669;28;86955;-81
2021/01/24 17:51:10;;;;;;;12.43;7.10;;;0.10;93.60;;;;;;4945078;28;87053;-80
2021/01/24 17:53:36;;;;;;;9.90;6.78;;;0.00;92.90;;;;;;4943164;28;87133;-80
2021/01/24 17:56:03;;;;;;;11.25;5.75;;;0.10;92.90;;;;;;4940050;28;87011;-80